Time;durP1;ratioP1;P1;durP2;ratioP2;P2;SDS_P1;SDS_P2;PMS_P1;PMS_P2;Temp;Humidity;BMP_temperature;BMP_pressure;BME280_temperature;BME280_humidity;BME280_pressure;Samples;Min_cycle;Max_cycle;Signal;HPM_P1;HPM_P2
2022/07/13 00:01:05;;;;;;;3.78;2.40;;;22.00;99.90;;;;;;5045970;28;20525;-61
2022/07/13 00:03:31;;;;;;;2.57;2.20;;;22.00;99.90;;;;;;5043490;28;20390;-61
2022/07/13 00:05:57;;;;;;;3.00;2.03;;;22.00;99.90;;;;;;5041469;28;20446;-61
2022/07/13 00:08:23;;;;;;;3.63;2.55;;;21.90;99.90;;;;;;5041730;28;20393;-61
2022/07/13 00:10:48;;;;;;;3.20;2.10;;;22.00;99.90;;;;;;5041747;28;20404;-62
2022/07/13 00:13:14;;;;;;;2.67;1.90;;;22.00;99.90;;;;;;5043342;28;20389;-61
2022/07/13 00:15:39;;;;;;;3.30;2.28;;;22.00;99.90;;;;;;5044100;28;20785;-62
2022/07/13 00:18:05;;;;;;;4.40;2.10;;;22.00;99.90;;;;;;5045471;28;20390;-61
2022/07/13 00:20:30;;;;;;;2.80;2.00;;;21.80;99.90;;;;;;5045855;28;20488;-62
2022/07/13 00:22:56;;;;;;;5.20;2.07;;;21.70;99.90;;;;;;5049018;28;20424;-61
2022/07/13 00:25:21;;;;;;;4.43;2.20;;;21.70;99.90;;;;;;5048021;28;20407;-61
2022/07/13 00:27:47;;;;;;;3.47;2.17;;;21.60;99.90;;;;;;5049195;28;20427;-61
2022/07/13 00:30:12;;;;;;;2.53;2.00;;;21.50;99.90;;;;;;5046946;28;20389;-62
2022/07/13 00:32:38;;;;;;;2.73;1.83;;;21.60;99.90;;;;;;5047234;28;20984;-61
2022/07/13 00:35:05;;;;;;;3.85;1.90;;;21.50;99.90;;;;;;5048468;28;20435;-62
2022/07/13 00:37:31;;;;;;;3.47;2.10;;;21.50;99.90;;;;;;5049363;28;20508;-61
2022/07/13 00:39:56;;;;;;;5.83;2.40;;;21.50;99.90;;;;;;5050716;28;20751;-62
2022/07/13 00:42:21;;;;;;;3.20;2.30;;;21.40;99.90;;;;;;5049177;28;20397;-70
2022/07/13 00:44:47;;;;;;;3.30;2.00;;;21.40;99.90;;;;;;5051494;28;20385;-72
2022/07/13 00:47:13;;;;;;;3.63;2.25;;;21.50;99.90;;;;;;5050971;28;20489;-71
2022/07/13 00:49:39;;;;;;;2.00;1.80;;;21.60;99.90;;;;;;5052620;28;20708;-72
2022/07/13 00:52:05;;;;;;;2.43;1.90;;;21.70;99.90;;;;;;5051257;28;20781;-72
2022/07/13 00:54:31;;;;;;;2.87;1.80;;;21.70;99.90;;;;;;5052653;28;20393;-72
2022/07/13 00:57:01;;;;;;;3.30;2.03;;;21.70;99.90;;;;;;5053019;28;20396;-72
2022/07/13 00:59:27;;;;;;;2.35;1.70;;;21.70;99.90;;;;;;5054119;28;20377;-72
2022/07/13 01:01:54;;;;;;;3.10;1.70;;;21.70;99.90;;;;;;5052902;28;20432;-71
2022/07/13 01:04:26;;;;;;;2.50;2.20;;;21.80;99.90;;;;;;5056071;28;20407;-71
2022/07/13 01:06:53;;;;;;;2.75;1.73;;;21.80;99.90;;;;;;5056325;28;20726;-71
2022/07/13 01:09:20;;;;;;;3.00;1.87;;;21.80;99.90;;;;;;5073074;28;20401;-71
2022/07/13 01:11:46;;;;;;;2.50;1.80;;;21.80;99.90;;;;;;5054682;28;20410;-71
2022/07/13 01:14:13;;;;;;;3.50;2.17;;;21.80;99.90;;;;;;5052667;28;20384;-71
2022/07/13 01:16:39;;;;;;;3.65;2.00;;;21.70;99.90;;;;;;5051696;28;20371;-71
2022/07/13 01:19:09;;;;;;;3.80;2.08;;;21.60;99.90;;;;;;5051469;28;20480;-71
2022/07/13 01:21:39;;;;;;;3.00;1.80;;;21.50;99.90;;;;;;5052699;28;20456;-72
2022/07/13 01:24:05;;;;;;;2.10;1.87;;;21.40;99.90;;;;;;5069911;28;20383;-72
2022/07/13 01:26:30;;;;;;;3.17;1.83;;;21.40;99.90;;;;;;5053415;28;20419;-72
2022/07/13 01:28:56;;;;;;;2.42;2.17;;;21.40;99.90;;;;;;5054108;28;20470;-71
2022/07/13 01:31:39;;;;;;;2.13;1.70;;;21.40;99.90;;;;;;5054808;28;20483;-72
2022/07/13 01:34:06;;;;;;;3.17;1.80;;;21.60;99.90;;;;;;5073357;28;20390;-73
2022/07/13 01:36:33;;;;;;;2.90;1.77;;;21.60;99.90;;;;;;5053952;28;20391;-72
2022/07/13 01:38:58;;;;;;;2.78;1.58;;;21.60;99.90;;;;;;5054719;28;20447;-72
2022/07/13 01:41:26;;;;;;;2.72;1.70;;;21.70;99.90;;;;;;5055123;28;20495;-71
2022/07/13 01:43:52;;;;;;;3.30;1.80;;;21.60;99.90;;;;;;5055287;28;20441;-71
2022/07/13 01:46:18;;;;;;;2.38;1.95;;;21.60;99.90;;;;;;5054276;28;21027;-71
2022/07/13 01:48:43;;;;;;;2.53;1.67;;;21.60;99.90;;;;;;5072878;28;20439;-72
2022/07/13 01:51:09;;;;;;;2.53;1.80;;;21.60;99.90;;;;;;5055139;28;20409;-72
2022/07/13 01:53:34;;;;;;;2.53;1.57;;;21.50;99.90;;;;;;5055637;28;20663;-72
2022/07/13 01:56:00;;;;;;;4.00;1.83;;;21.60;99.90;;;;;;5055938;28;20379;-72
2022/07/13 01:58:26;;;;;;;2.83;1.70;;;21.50;99.90;;;;;;5073656;28;20388;-72
2022/07/13 02:00:52;;;;;;;3.88;1.98;;;21.50;99.90;;;;;;5071859;28;20391;-72
2022/07/13 02:03:18;;;;;;;3.35;1.70;;;21.40;99.90;;;;;;5052145;28;20720;-71
2022/07/13 02:05:43;;;;;;;2.17;1.60;;;21.40;99.90;;;;;;5069576;28;20465;-72
2022/07/13 02:08:08;;;;;;;5.30;1.90;;;21.40;99.90;;;;;;5052942;28;20391;-71
2022/07/13 02:10:37;;;;;;;2.65;1.80;;;21.40;99.90;;;;;;5069378;28;20474;-71
2022/07/13 02:13:08;;;;;;;2.00;1.67;;;21.30;99.90;;;;;;5052386;28;20939;-71
2022/07/13 02:15:35;;;;;;;2.45;1.63;;;21.20;99.90;;;;;;5072009;28;20382;-71
2022/07/13 02:18:00;;;;;;;4.05;1.80;;;21.20;99.90;;;;;;5069967;28;20382;-72
2022/07/13 02:20:26;;;;;;;1.70;1.60;;;21.30;99.90;;;;;;5054174;28;20403;-72
2022/07/13 02:22:52;;;;;;;1.73;1.57;;;21.30;99.90;;;;;;5054845;28;20416;-71
2022/07/13 02:25:18;;;;;;;3.80;1.63;;;21.30;99.90;;;;;;5072454;28;20856;-72
2022/07/13 02:27:44;;;;;;;3.50;1.55;;;21.30;99.90;;;;;;5053222;28;20399;-72
2022/07/13 02:30:11;;;;;;;2.33;1.47;;;21.30;99.90;;;;;;5053416;28;20391;-72
2022/07/13 02:32:37;;;;;;;2.80;1.80;;;21.30;99.90;;;;;;5052330;28;20438;-71
2022/07/13 02:35:02;;;;;;;2.57;1.40;;;21.20;99.90;;;;;;5054354;28;20420;-72
2022/07/13 02:37:28;;;;;;;2.70;1.70;;;21.30;99.90;;;;;;5053841;28;20376;-72
2022/07/13 02:39:56;;;;;;;2.10;1.63;;;21.20;99.90;;;;;;5053977;28;20386;-72
2022/07/13 02:42:22;;;;;;;2.35;1.58;;;21.10;99.90;;;;;;5056402;28;20410;-71
2022/07/13 02:44:49;;;;;;;3.50;1.80;;;21.10;99.90;;;;;;5056083;28;20380;-71
2022/07/13 02:47:14;;;;;;;2.83;1.65;;;21.00;99.90;;;;;;5054561;28;20396;-71
2022/07/13 02:49:40;;;;;;;2.88;1.85;;;21.00;99.90;;;;;;5053800;28;20395;-71
2022/07/13 02:52:06;;;;;;;3.25;1.60;;;21.00;99.90;;;;;;5054766;28;20680;-71
2022/07/13 02:54:31;;;;;;;1.90;1.70;;;21.00;99.90;;;;;;5054149;28;20464;-71
2022/07/13 02:56:57;;;;;;;2.47;1.77;;;20.90;99.90;;;;;;5055307;28;20424;-71
2022/07/13 02:59:23;;;;;;;2.17;1.60;;;21.00;99.90;;;;;;5055179;28;20391;-71
2022/07/13 03:01:48;;;;;;;2.10;1.70;;;21.00;99.90;;;;;;5055023;28;20662;-72
2022/07/13 03:04:14;;;;;;;4.10;1.80;;;20.90;99.90;;;;;;5055730;28;20400;-72
2022/07/13 03:06:39;;;;;;;2.13;1.47;;;20.90;99.90;;;;;;5054617;28;20474;-72
2022/07/13 03:09:06;;;;;;;1.63;1.50;;;20.90;99.90;;;;;;5054271;28;20419;-72
2022/07/13 03:11:32;;;;;;;3.50;1.65;;;20.90;99.90;;;;;;5050562;28;20406;-71
2022/07/13 03:13:57;;;;;;;3.13;1.80;;;20.90;99.90;;;;;;5051706;28;20387;-71
2022/07/13 03:16:23;;;;;;;3.72;2.00;;;21.00;99.90;;;;;;5051136;28;20551;-71
2022/07/13 03:18:49;;;;;;;2.73;1.37;;;20.90;99.90;;;;;;5049749;28;20380;-71
2022/07/13 03:21:14;;;;;;;2.35;1.70;;;20.90;99.90;;;;;;5049018;28;20882;-72
2022/07/13 03:23:40;;;;;;;3.40;1.60;;;21.00;99.90;;;;;;5049882;28;20384;-72
2022/07/13 03:26:06;;;;;;;2.23;1.77;;;21.00;99.90;;;;;;5065567;28;20478;-72
2022/07/13 03:28:32;;;;;;;2.03;1.80;;;21.00;99.90;;;;;;5047876;28;20464;-71
2022/07/13 03:30:57;;;;;;;1.60;1.50;;;20.90;99.90;;;;;;5066195;28;20395;-71
2022/07/13 03:33:23;;;;;;;1.98;1.60;;;20.90;99.90;;;;;;5050932;28;20688;-71
2022/07/13 03:35:49;;;;;;;2.13;1.60;;;21.00;99.90;;;;;;5053073;28;20419;-71
2022/07/13 03:38:15;;;;;;;2.38;1.40;;;21.10;99.90;;;;;;5054595;28;20449;-72
2022/07/13 03:40:41;;;;;;;2.78;1.60;;;21.10;99.90;;;;;;5053494;28;20444;-72
2022/07/13 03:43:06;;;;;;;2.78;1.50;;;21.10;99.90;;;;;;5053963;28;20388;-72
2022/07/13 03:45:32;;;;;;;2.00;1.60;;;21.20;99.90;;;;;;5053017;28;20415;-72
2022/07/13 03:47:58;;;;;;;2.08;1.60;;;21.20;99.90;;;;;;5070587;28;20471;-72
2022/07/13 03:50:23;;;;;;;2.50;1.55;;;21.10;99.90;;;;;;5053827;28;20504;-73
2022/07/13 03:52:49;;;;;;;2.67;1.70;;;21.10;99.90;;;;;;5056257;28;20407;-72
2022/07/13 03:55:14;;;;;;;3.40;1.55;;;21.20;99.90;;;;;;5073696;28;20490;-72
2022/07/13 03:57:40;;;;;;;1.80;1.60;;;21.20;99.90;;;;;;5055889;28;20466;-72
2022/07/13 04:00:07;;;;;;;2.50;1.85;;;21.10;99.90;;;;;;5056051;28;20631;-72
2022/07/13 04:02:32;;;;;;;2.08;1.67;;;21.20;99.90;;;;;;5055505;28;20488;-72
2022/07/13 04:04:58;;;;;;;3.57;1.70;;;21.20;99.90;;;;;;5051903;28;20810;-72
2022/07/13 04:07:24;;;;;;;3.50;1.70;;;21.20;99.90;;;;;;5052341;28;20697;-72
2022/07/13 04:09:49;;;;;;;2.90;1.80;;;21.20;99.90;;;;;;5049909;28;20393;-72
2022/07/13 04:12:20;;;;;;;3.40;1.63;;;21.20;99.90;;;;;;5048506;28;20701;-72
2022/07/13 04:14:45;;;;;;;2.40;1.83;;;21.30;99.90;;;;;;5047812;28;20388;-72
2022/07/13 04:17:11;;;;;;;2.70;1.70;;;21.30;99.90;;;;;;5047784;28;20674;-72
2022/07/13 04:19:37;;;;;;;3.83;1.80;;;21.30;99.90;;;;;;5047604;28;20400;-71
2022/07/13 04:22:02;;;;;;;3.23;2.20;;;21.30;99.90;;;;;;5047381;28;20793;-72
2022/07/13 04:24:28;;;;;;;3.28;2.00;;;21.20;99.90;;;;;;5047736;28;20392;-71
2022/07/13 04:26:53;;;;;;;2.90;1.80;;;21.20;99.90;;;;;;5046527;28;20703;-72
2022/07/13 04:29:19;;;;;;;2.53;1.83;;;21.20;99.90;;;;;;5045602;28;20381;-71
2022/07/13 04:31:44;;;;;;;2.90;1.90;;;21.20;99.90;;;;;;5043643;28;20420;-71
2022/07/13 04:34:10;;;;;;;3.97;2.30;;;21.10;99.90;;;;;;5045213;28;20694;-71
2022/07/13 04:36:35;;;;;;;2.83;1.93;;;21.10;99.90;;;;;;5047001;28;20382;-71
2022/07/13 04:39:01;;;;;;;3.13;2.00;;;21.20;99.90;;;;;;5045111;28;20563;-72
2022/07/13 04:41:26;;;;;;;3.83;2.20;;;21.20;99.90;;;;;;5045843;28;20408;-72
2022/07/13 04:43:52;;;;;;;2.88;2.00;;;21.30;99.90;;;;;;5044755;28;20680;-72
2022/07/13 04:46:18;;;;;;;4.63;2.10;;;21.30;99.90;;;;;;5042446;28;20820;-73
2022/07/13 04:48:43;;;;;;;2.38;1.95;;;21.30;99.90;;;;;;5041719;28;20488;-71
2022/07/13 04:51:09;;;;;;;3.90;1.83;;;21.20;99.90;;;;;;5044045;28;20732;-72
2022/07/13 04:53:35;;;;;;;3.30;2.00;;;21.20;99.90;;;;;;5044455;28;20736;-72
2022/07/13 04:56:01;;;;;;;3.00;1.77;;;21.10;99.90;;;;;;5045772;28;20382;-72
2022/07/13 04:58:26;;;;;;;2.65;2.00;;;21.10;99.90;;;;;;5043501;28;20393;-72
2022/07/13 05:00:52;;;;;;;2.50;1.80;;;21.20;99.90;;;;;;5044352;28;20665;-72
2022/07/13 05:03:18;;;;;;;3.37;1.93;;;21.30;99.90;;;;;;5043967;28;20662;-72
2022/07/13 05:05:43;;;;;;;2.50;1.80;;;21.30;99.90;;;;;;5044552;28;20421;-72
2022/07/13 05:08:09;;;;;;;3.57;1.77;;;21.40;99.90;;;;;;5046692;28;20396;-72
2022/07/13 05:10:34;;;;;;;1.52;1.40;;;21.40;99.90;;;;;;5045754;28;20400;-72
2022/07/13 05:13:00;;;;;;;2.97;1.87;;;21.50;99.90;;;;;;5044348;28;20504;-71
2022/07/13 05:15:26;;;;;;;2.27;1.63;;;21.50;99.90;;;;;;5044352;28;20476;-71
2022/07/13 05:17:51;;;;;;;4.55;2.00;;;21.50;99.90;;;;;;5044650;28;20466;-71
2022/07/13 05:20:17;;;;;;;3.23;2.23;;;21.50;99.90;;;;;;5045068;28;20393;-70
2022/07/13 05:22:43;;;;;;;3.73;1.97;;;21.50;99.90;;;;;;5047014;28;20773;-71
2022/07/13 05:25:09;;;;;;;2.35;2.00;;;21.50;99.90;;;;;;5046945;28;20417;-71
2022/07/13 05:27:34;;;;;;;3.45;1.73;;;21.50;99.90;;;;;;5046455;28;20409;-72
2022/07/13 05:30:00;;;;;;;4.37;1.87;;;21.50;99.90;;;;;;5046186;28;20855;-71
2022/07/13 05:32:26;;;;;;;4.72;2.05;;;21.50;99.90;;;;;;5043180;28;20420;-72
2022/07/13 05:34:51;;;;;;;3.17;1.90;;;21.50;99.90;;;;;;5043262;28;20785;-73
2022/07/13 05:37:17;;;;;;;3.42;2.03;;;21.50;99.90;;;;;;5041805;28;20443;-72
2022/07/13 05:39:44;;;;;;;3.20;1.80;;;21.50;99.90;;;;;;5040102;28;20394;-72
2022/07/13 05:42:10;;;;;;;7.55;2.40;;;21.50;99.90;;;;;;5042232;28;20385;-73
2022/07/13 05:44:36;;;;;;;7.40;2.20;;;21.50;99.90;;;;;;5044667;28;20413;-71
2022/07/13 05:47:02;;;;;;;2.50;1.70;;;21.40;99.90;;;;;;5046855;28;20490;-71
2022/07/13 05:49:27;;;;;;;4.27;2.00;;;21.50;99.90;;;;;;5045708;28;20393;-72
2022/07/13 05:51:53;;;;;;;3.88;2.08;;;21.50;99.90;;;;;;5046428;28;20530;-71
2022/07/13 05:54:18;;;;;;;3.63;2.00;;;21.60;99.90;;;;;;5043659;28;20390;-71
2022/07/13 05:56:44;;;;;;;2.53;2.03;;;21.70;99.90;;;;;;5039562;28;20389;-72
2022/07/13 05:59:10;;;;;;;2.55;1.77;;;21.70;99.90;;;;;;5039700;28;20771;-71
2022/07/13 06:01:35;;;;;;;2.20;1.60;;;21.80;99.90;;;;;;5039862;28;20397;-72
2022/07/13 06:04:01;;;;;;;2.17;1.70;;;21.80;99.90;;;;;;5040315;28;20504;-72
2022/07/13 06:06:26;;;;;;;2.63;1.70;;;21.90;99.90;;;;;;5041708;28;20403;-72
2022/07/13 06:08:52;;;;;;;3.37;1.50;;;21.90;99.90;;;;;;5039932;28;21023;-72
2022/07/13 06:11:17;;;;;;;3.33;1.97;;;22.00;99.90;;;;;;5043680;28;20383;-72
2022/07/13 06:13:43;;;;;;;3.97;1.80;;;22.00;99.90;;;;;;5059514;28;20391;-72
2022/07/13 06:16:09;;;;;;;1.92;1.70;;;21.90;99.90;;;;;;5044741;28;20712;-72
2022/07/13 06:18:34;;;;;;;2.25;1.73;;;22.10;99.90;;;;;;5041315;28;20372;-72
2022/07/13 06:21:00;;;;;;;4.60;2.00;;;22.10;99.90;;;;;;5039093;28;20434;-71
2022/07/13 06:23:25;;;;;;;5.07;2.63;;;22.10;99.90;;;;;;5039861;28;20387;-71
2022/07/13 06:25:52;;;;;;;7.05;2.65;;;22.10;99.90;;;;;;5058219;28;20457;-71
2022/07/13 06:28:17;;;;;;;3.28;1.98;;;22.10;99.90;;;;;;5039546;28;20644;-70
2022/07/13 06:30:43;;;;;;;6.03;2.40;;;22.10;99.90;;;;;;5039176;28;20605;-71
2022/07/13 06:33:09;;;;;;;4.67;2.30;;;22.10;99.90;;;;;;5055264;28;20411;-73
2022/07/13 06:35:34;;;;;;;4.73;2.50;;;22.20;99.90;;;;;;5037993;28;20399;-71
2022/07/13 06:38:00;;;;;;;6.28;2.42;;;22.20;99.90;;;;;;5060009;28;20428;-74
2022/07/13 06:40:25;;;;;;;7.60;2.40;;;22.20;99.90;;;;;;5059939;28;20376;-73
2022/07/13 06:42:51;;;;;;;6.63;2.40;;;22.20;99.90;;;;;;5039151;28;20490;-72
2022/07/13 06:45:16;;;;;;;4.43;2.80;;;22.30;99.90;;;;;;5056109;28;20478;-72
2022/07/13 06:47:42;;;;;;;4.07;2.20;;;22.30;99.90;;;;;;5038625;28;20399;-72
2022/07/13 06:50:08;;;;;;;11.23;3.07;;;22.30;99.90;;;;;;5040711;28;20504;-72
2022/07/13 06:52:34;;;;;;;4.53;2.60;;;22.40;99.90;;;;;;5040466;28;20558;-72
2022/07/13 06:54:59;;;;;;;6.47;2.90;;;22.40;99.90;;;;;;5041845;28;20397;-72
2022/07/13 06:57:25;;;;;;;4.10;2.10;;;22.40;99.90;;;;;;5059609;28;20391;-71
2022/07/13 06:59:51;;;;;;;3.53;2.40;;;22.50;99.90;;;;;;5042198;28;20391;-71
2022/07/13 07:02:16;;;;;;;5.97;3.17;;;22.50;99.90;;;;;;5039003;28;20594;-71
2022/07/13 07:04:42;;;;;;;4.83;2.60;;;22.40;99.90;;;;;;5037664;28;20462;-72
2022/07/13 07:07:09;;;;;;;5.18;2.65;;;22.40;99.90;;;;;;5037231;28;20687;-73
2022/07/13 07:09:35;;;;;;;5.72;2.90;;;22.30;99.90;;;;;;5033104;28;20460;-71
2022/07/13 07:12:00;;;;;;;5.38;2.78;;;22.40;99.90;;;;;;5031713;28;20682;-71
2022/07/13 07:14:26;;;;;;;5.10;2.87;;;22.30;99.90;;;;;;5032826;28;20775;-71
2022/07/13 07:16:51;;;;;;;4.65;3.40;;;22.30;99.90;;;;;;5033211;28;20391;-71
2022/07/13 07:19:17;;;;;;;5.17;2.80;;;22.20;99.90;;;;;;5035165;28;20407;-72
2022/07/13 07:21:43;;;;;;;4.25;2.92;;;22.20;99.90;;;;;;5036658;28;20391;-72
2022/07/13 07:24:08;;;;;;;4.67;3.00;;;22.20;99.90;;;;;;5037871;28;20596;-71
2022/07/13 07:26:34;;;;;;;8.13;2.47;;;22.10;99.90;;;;;;5038699;28;20460;-72
2022/07/13 07:28:59;;;;;;;4.27;2.70;;;22.10;99.90;;;;;;5040997;28;20766;-71
2022/07/13 07:31:25;;;;;;;4.18;2.90;;;22.10;99.90;;;;;;5058631;28;20615;-71
2022/07/13 07:33:51;;;;;;;2.67;2.20;;;22.10;99.90;;;;;;5040362;28;20427;-73
2022/07/13 07:36:17;;;;;;;4.88;2.75;;;22.10;99.90;;;;;;5037702;28;20437;-72
2022/07/13 07:38:45;;;;;;;6.63;2.90;;;22.00;99.90;;;;;;5038332;28;20387;-71
2022/07/13 07:41:11;;;;;;;3.20;2.67;;;22.00;99.90;;;;;;5036369;28;20667;-71
2022/07/13 07:43:37;;;;;;;4.25;2.88;;;22.00;99.90;;;;;;5055051;28;20756;-71
2022/07/13 07:46:03;;;;;;;4.88;2.95;;;22.10;99.90;;;;;;5039892;28;20376;-71
2022/07/13 07:48:29;;;;;;;5.07;3.28;;;22.10;99.90;;;;;;5039891;28;20378;-72
2022/07/13 07:50:55;;;;;;;4.00;3.03;;;22.20;99.90;;;;;;5040719;28;20457;-72
2022/07/13 07:53:20;;;;;;;5.33;3.20;;;22.20;99.90;;;;;;5039487;28;20715;-72
2022/07/13 07:55:46;;;;;;;4.07;3.30;;;22.20;99.90;;;;;;5038238;28;20509;-73
2022/07/13 07:58:13;;;;;;;4.70;2.60;;;22.20;99.90;;;;;;5056860;28;20387;-71
2022/07/13 08:00:42;;;;;;;5.70;2.90;;;22.20;99.90;;;;;;5039911;28;20537;-71
2022/07/13 08:03:09;;;;;;;3.10;2.58;;;22.30;99.90;;;;;;5057886;28;20615;-73
2022/07/13 08:05:35;;;;;;;3.75;2.63;;;22.40;99.90;;;;;;5059811;28;20563;-71
2022/07/13 08:08:01;;;;;;;3.65;2.72;;;22.40;99.90;;;;;;5042545;28;20576;-71
2022/07/13 08:10:27;;;;;;;5.00;2.65;;;22.40;99.90;;;;;;5059772;28;20713;-74
2022/07/13 08:12:53;;;;;;;3.40;2.58;;;22.40;99.90;;;;;;5040315;28;20396;-72
2022/07/13 08:15:18;;;;;;;4.70;2.60;;;22.40;99.90;;;;;;5039287;28;20783;-70
2022/07/13 08:17:44;;;;;;;5.20;2.63;;;22.50;99.90;;;;;;5037704;28;20414;-70
2022/07/13 08:20:11;;;;;;;2.93;2.57;;;22.50;99.90;;;;;;5038269;28;20656;-69
2022/07/13 08:22:40;;;;;;;5.50;3.03;;;22.50;99.90;;;;;;5038705;28;20543;-72
2022/07/13 08:25:06;;;;;;;5.63;3.00;;;22.50;99.90;;;;;;5038607;28;20384;-70
2022/07/13 08:27:32;;;;;;;4.30;2.75;;;22.50;99.90;;;;;;5036980;28;20399;-73
2022/07/13 08:29:58;;;;;;;3.20;2.45;;;22.50;99.90;;;;;;5035490;28;20388;-72
2022/07/13 08:32:24;;;;;;;6.07;2.58;;;22.60;99.90;;;;;;5036752;28;20400;-73
2022/07/13 08:40:21;;;;;;;3.28;2.17;;;22.70;99.90;;;;;;5058186;28;20444;-72
2022/07/13 08:42:47;;;;;;;4.47;2.47;;;22.80;99.90;;;;;;5046935;28;20418;-73
2022/07/13 08:45:14;;;;;;;2.90;2.20;;;22.70;99.90;;;;;;5051236;28;20834;-73
2022/07/13 08:47:42;;;;;;;4.40;2.58;;;22.70;99.90;;;;;;5052303;28;20391;-71
2022/07/13 08:50:09;;;;;;;3.45;2.30;;;22.70;99.90;;;;;;5052856;28;20392;-73
2022/07/13 08:52:42;;;;;;;3.47;2.63;;;22.80;99.90;;;;;;5050502;28;20513;-72
2022/07/13 08:55:08;;;;;;;3.75;2.42;;;22.80;99.90;;;;;;5050159;28;20378;-72
2022/07/13 08:57:35;;;;;;;4.28;2.40;;;22.80;99.90;;;;;;5050503;28;20403;-72
2022/07/13 09:00:07;;;;;;;4.85;2.40;;;22.80;99.90;;;;;;5045139;28;20429;-72
2022/07/13 09:02:33;;;;;;;3.97;2.58;;;22.80;99.90;;;;;;5044698;28;20459;-72
2022/07/13 09:05:04;;;;;;;4.40;3.00;;;22.90;99.90;;;;;;5042547;28;20458;-72
2022/07/13 09:07:30;;;;;;;4.30;2.70;;;22.90;99.90;;;;;;5043610;28;20397;-71
2022/07/13 09:09:58;;;;;;;4.13;2.90;;;22.80;99.90;;;;;;5044194;28;20446;-72
2022/07/13 09:12:25;;;;;;;3.60;2.28;;;22.90;99.90;;;;;;5042274;28;20428;-71
2022/07/13 09:14:56;;;;;;;3.00;2.60;;;23.00;99.90;;;;;;5042733;28;20403;-71
2022/07/13 09:17:35;;;;;;;5.68;2.88;;;23.10;99.90;;;;;;5044305;28;20384;-70
2022/07/13 09:20:14;;;;;;;4.28;2.85;;;23.20;99.90;;;;;;5043695;28;20466;-71
2022/07/13 09:22:57;;;;;;;4.45;3.15;;;23.20;99.90;;;;;;5038919;28;20416;-71
2022/07/13 09:25:37;;;;;;;6.03;3.90;;;23.20;99.90;;;;;;5044361;28;20385;-70
2022/07/13 09:28:12;;;;;;;6.13;3.30;;;23.20;99.90;;;;;;5044499;28;20421;-72
2022/07/13 09:30:42;;;;;;;5.07;2.50;;;23.30;99.90;;;;;;5045539;28;20389;-70
2022/07/13 09:33:08;;;;;;;6.03;2.97;;;23.50;99.90;;;;;;5048029;28;20432;-69
2022/07/13 09:35:47;;;;;;;5.13;3.03;;;23.40;99.90;;;;;;5048757;28;21102;-70
2022/07/13 09:38:30;;;;;;;2.90;2.60;;;23.40;99.90;;;;;;5049953;28;20468;-71
2022/07/13 09:40:56;;;;;;;5.05;3.08;;;23.50;99.90;;;;;;5048347;28;20378;-70
2022/07/13 09:46:09;;;;;;;4.53;3.15;;;23.50;99.90;;;;;;5049468;28;20644;-70
2022/07/13 09:48:38;;;;;;;3.57;3.10;;;23.60;99.90;;;;;;5047984;28;20500;-70
2022/07/13 09:51:05;;;;;;;7.72;3.60;;;23.70;99.90;;;;;;5049121;28;20393;-69
2022/07/13 09:53:36;;;;;;;3.40;3.10;;;23.90;99.90;;;;;;5046533;28;20412;-69
2022/07/13 09:56:03;;;;;;;4.78;3.20;;;23.90;99.90;;;;;;5046306;28;20507;-70
2022/07/13 09:58:34;;;;;;;7.85;3.40;;;23.90;99.90;;;;;;5047327;28;20800;-69
2022/07/13 10:01:03;;;;;;;4.00;3.60;;;24.00;99.90;;;;;;5043296;28;20542;-69
2022/07/13 10:03:29;;;;;;;6.18;3.33;;;24.00;99.90;;;;;;5045769;28;20792;-70
2022/07/13 10:05:56;;;;;;;5.88;3.88;;;24.10;99.90;;;;;;5044463;28;20413;-70
2022/07/13 10:08:22;;;;;;;4.65;3.47;;;24.00;99.90;;;;;;5045114;28;20511;-70
2022/07/13 10:10:48;;;;;;;7.13;4.00;;;24.00;99.90;;;;;;5047383;28;20395;-70
2022/07/13 10:13:15;;;;;;;5.63;3.38;;;23.90;99.90;;;;;;5046114;28;20405;-70
2022/07/13 10:15:41;;;;;;;4.55;3.58;;;23.90;99.90;;;;;;5047379;28;20942;-70
2022/07/13 10:18:12;;;;;;;5.50;3.87;;;24.00;99.90;;;;;;5047905;28;20394;-69
2022/07/13 10:20:42;;;;;;;4.38;3.28;;;24.00;99.90;;;;;;5042766;28;20381;-69
2022/07/13 10:23:08;;;;;;;5.40;3.60;;;24.00;99.90;;;;;;5044169;28;20465;-70
2022/07/13 10:25:45;;;;;;;4.00;3.60;;;24.00;99.90;;;;;;5046692;28;20389;-70
2022/07/13 10:28:14;;;;;;;4.47;3.10;;;24.10;99.90;;;;;;5048181;28;20434;-70
2022/07/13 10:30:39;;;;;;;5.40;3.60;;;24.20;99.90;;;;;;5046716;28;20450;-71
2022/07/13 10:33:22;;;;;;;3.83;3.05;;;24.30;99.90;;;;;;5044428;28;20405;-70
2022/07/13 10:35:53;;;;;;;4.93;3.63;;;24.40;99.90;;;;;;5044713;28;20702;-71
2022/07/13 10:38:27;;;;;;;3.22;2.72;;;24.50;99.90;;;;;;5045413;28;20421;-70
2022/07/13 10:41:19;;;;;;;4.60;3.17;;;24.50;99.90;;;;;;5044657;28;20714;-70
2022/07/13 10:44:03;;;;;;;3.60;3.17;;;24.60;99.90;;;;;;5046078;28;20429;-70
2022/07/13 10:46:49;;;;;;;4.60;2.90;;;24.70;99.90;;;;;;5045995;28;20392;-71
2022/07/13 10:49:35;;;;;;;4.80;2.75;;;24.80;99.90;;;;;;5046346;28;20793;-71
2022/07/13 10:52:22;;;;;;;3.70;3.22;;;24.90;99.90;;;;;;5046469;28;20416;-71
2022/07/13 10:55:03;;;;;;;7.30;3.50;;;24.90;99.90;;;;;;5047178;28;20383;-71
2022/07/13 10:57:33;;;;;;;5.80;3.13;;;24.90;99.90;;;;;;5049775;28;20393;-72
2022/07/13 11:00:28;;;;;;;3.50;3.20;;;24.90;99.90;;;;;;5048900;28;20389;-72
2022/07/13 11:02:56;;;;;;;5.63;3.40;;;24.90;99.90;;;;;;5047810;28;20488;-72
2022/07/13 11:05:29;;;;;;;6.22;3.45;;;24.90;99.90;;;;;;5047080;28;21137;-72
2022/07/13 11:07:55;;;;;;;4.75;3.22;;;24.90;99.90;;;;;;5046512;28;20580;-72
2022/07/13 11:10:25;;;;;;;4.73;3.33;;;24.90;99.90;;;;;;5045896;28;21064;-72
2022/07/13 11:13:12;;;;;;;4.53;3.58;;;25.00;99.90;;;;;;5044548;28;20433;-71
2022/07/13 11:15:55;;;;;;;4.97;3.00;;;25.10;99.90;;;;;;5042753;28;20392;-71
2022/07/13 11:18:31;;;;;;;5.40;3.38;;;25.10;99.90;;;;;;5042015;28;20421;-71
2022/07/13 11:21:09;;;;;;;4.80;3.17;;;25.30;99.90;;;;;;5041001;28;20413;-72
2022/07/13 11:26:42;;;;;;;3.60;2.60;;;25.30;99.90;;;;;;5037275;28;20480;-71
2022/07/13 11:29:32;;;;;;;7.22;3.40;;;25.40;99.90;;;;;;5038985;28;20385;-71
2022/07/13 11:31:59;;;;;;;4.20;3.47;;;25.40;99.90;;;;;;5040302;28;20463;-71
2022/07/13 11:34:26;;;;;;;3.38;2.80;;;25.50;99.90;;;;;;5041071;28;20483;-71
2022/07/13 11:36:53;;;;;;;4.00;2.80;;;25.50;99.90;;;;;;5041468;28;20724;-71
2022/07/13 11:39:26;;;;;;;3.78;2.80;;;25.60;99.90;;;;;;5042091;28;20455;-72
2022/07/13 11:41:53;;;;;;;4.80;3.85;;;25.80;99.90;;;;;;5045446;28;20390;-70
2022/07/13 11:44:25;;;;;;;5.83;3.40;;;25.70;99.90;;;;;;5046188;28;20392;-70
2022/07/13 11:46:54;;;;;;;4.13;2.87;;;25.60;99.90;;;;;;5046869;28;20986;-70
2022/07/13 11:49:20;;;;;;;5.20;3.60;;;25.80;99.90;;;;;;5046034;28;20397;-70
2022/07/13 11:51:46;;;;;;;6.45;3.25;;;25.80;99.90;;;;;;5045353;28;20424;-70
2022/07/13 11:54:15;;;;;;;4.57;2.60;;;25.90;99.90;;;;;;5045693;28;20889;-70
2022/07/13 11:56:49;;;;;;;4.72;3.40;;;26.00;99.90;;;;;;5044088;28;21032;-71
2022/07/13 11:59:33;;;;;;;4.32;3.60;;;26.20;99.90;;;;;;5040605;28;20393;-71
2022/07/13 12:02:01;;;;;;;4.10;3.05;;;26.30;99.90;;;;;;5040921;28;20401;-71
2022/07/13 12:04:26;;;;;;;4.47;3.20;;;26.50;99.90;;;;;;5041026;28;20474;-70
2022/07/13 12:07:28;;;;;;;3.30;2.75;;;26.60;99.90;;;;;;5040172;28;20488;-70
2022/07/13 12:09:55;;;;;;;3.70;3.10;;;26.60;99.90;;;;;;5037072;28;20801;-70
2022/07/13 12:12:26;;;;;;;3.88;3.10;;;26.60;99.90;;;;;;5044721;28;20401;-70
2022/07/13 12:14:53;;;;;;;4.05;3.65;;;26.70;99.90;;;;;;5045709;28;20378;-70
2022/07/13 12:17:20;;;;;;;4.65;3.20;;;26.50;99.90;;;;;;5045777;28;20472;-70
2022/07/13 12:19:45;;;;;;;5.80;3.20;;;26.40;99.90;;;;;;5047335;28;20393;-70
2022/07/13 12:22:11;;;;;;;5.77;2.73;;;26.20;99.90;;;;;;5048176;28;20405;-70
2022/07/13 12:24:43;;;;;;;4.57;2.88;;;26.40;99.90;;;;;;5049653;28;20393;-72
2022/07/13 12:27:09;;;;;;;3.95;2.90;;;26.40;99.90;;;;;;5048674;28;20388;-72
2022/07/13 12:29:35;;;;;;;4.13;2.80;;;26.30;99.90;;;;;;5049834;28;20389;-72
2022/07/13 12:32:02;;;;;;;4.90;2.83;;;26.40;99.90;;;;;;5047240;28;20397;-72
2022/07/13 12:34:28;;;;;;;4.45;2.90;;;26.50;99.90;;;;;;5044967;28;20775;-72
2022/07/13 12:36:54;;;;;;;6.00;3.03;;;26.50;99.90;;;;;;5046494;28;20790;-72
2022/07/13 12:39:41;;;;;;;4.27;3.00;;;26.40;99.90;;;;;;5047214;28;20451;-72
2022/07/13 12:42:07;;;;;;;5.03;2.97;;;26.30;99.90;;;;;;5049387;28;20385;-72
2022/07/13 12:44:35;;;;;;;3.20;2.90;;;26.30;99.90;;;;;;5047774;28;20385;-72
2022/07/13 12:47:01;;;;;;;4.03;2.70;;;26.50;99.90;;;;;;5041884;28;20494;-72
2022/07/13 12:49:42;;;;;;;3.33;2.50;;;27.00;99.90;;;;;;5033880;28;20685;-73
2022/07/13 12:52:09;;;;;;;5.07;2.90;;;27.20;99.90;;;;;;5033124;28;20413;-73
2022/07/13 12:54:44;;;;;;;3.40;3.00;;;27.30;99.90;;;;;;5035438;28;20443;-73
2022/07/13 12:57:21;;;;;;;3.40;3.10;;;27.70;99.90;;;;;;5035508;28;20917;-73
2022/07/13 13:00:07;;;;;;;4.18;3.08;;;27.90;99.90;;;;;;5038486;28;20450;-72
2022/07/13 13:02:33;;;;;;;4.45;3.55;;;28.10;99.90;;;;;;5039783;28;20607;-73